Airfield :
LOGIN :

Register | Disclaimer

   EN    FR    IT 

 










Legend :    VFR   Marginal VFR   IFR   Intensive IFR   Very Intensive IFR
Visi :
Ceiling :
>= 8 km
>= 3000ft
5 to 8 km
1000 to 3000 ft
1500m to 5 km
500 to 1000 ft
800 to 1500m
200 to 500 ft
< 800m
< 200 ft
Symbols :   Thunderstorms  Fog  Heavy snow  Heavy precipitations  Wind > 20 kt
SIGMETs :     Misc.  Thunderstorms  Icing  Turbulence  Mountain Waves  Volcanic Ashes






- Airport Elevation : 39 ft
- IATA code : ANR


EBAW - Anvers / Antwerpen Deurne

CURRENT METAR :
  • 181550Z 22010KT 9999 SCT013 BKN016 06/03 Q1021 TEMPO BKN014

EXPIRED METARs :
  • 181520Z 22009KT 9999 SCT014 BKN017 06/03 Q1021 TEMPO BKN014
  • 181450Z 23009KT 9999 SCT014 BKN018 06/03 Q1021 TEMPO BKN014
  • 181420Z 22009KT 190V250 9999 SCT014 BKN020 06/03 Q1021 NOSIG
  • 181350Z 23011KT 9999 FEW014 06/03 Q1021 NOSIG
  • 181320Z 23010KT 200V260 9999 FEW013 SCT048 06/03 Q1021 NOSIG

TAF TAF EBAW
Valid from the 18 at 15:00 until the 19 at 00:00 UTC


181400Z 1815/1824 23012KT 9999 FEW014 SCT040
PROB30
TEMPO 1815/1820 BKN014



MET'MAP, your aeronautical weather chart ! - Copyright ORBIFLY December 2007 - Disclaimer

ORBIFLY MET'MAP TEAM :

Programming & Development : Alexandra Zaïnal
Concept & original design : Baudouin d'Aumeries
Assistance for programming : Marc-Olivier Méhu
Technical & hardware support : Manuel Goepfert

Contact : metmap@orbifly.com




SOURCES & CREDITS :

   NOAA